Time;durP1;ratioP1;P1;durP2;ratioP2;P2;SDS_P1;SDS_P2;PMS_P1;PMS_P2;Temp;Humidity;BMP_temperature;BMP_pressure;BME280_temperature;BME280_humidity;BME280_pressure;Samples;Min_cycle;Max_cycle;Signal;HPM_P1;HPM_P2
2024/01/22 00:08:20;;;;;;;;;;;-2.40;99.90;;;;;;20860018;28;19924;-75
2024/01/22 00:18:20;;;;;;;;;;;-2.40;99.90;;;;;;20840064;28;20121;-75
2024/01/22 00:28:21;;;;;;;;;;;-2.50;99.90;;;;;;20843200;28;20058;-75
2024/01/22 00:38:22;;;;;;;;;;;-2.10;99.90;;;;;;20843323;28;19916;-75
2024/01/22 00:48:23;;;;;;;;;;;-2.20;99.90;;;;;;20879050;28;20295;-74
2024/01/22 00:58:23;;;;;;;;;;;-2.10;99.90;;;;;;20842074;28;19959;-73
2024/01/22 01:08:24;;;;;;;;;;;-2.20;99.90;;;;;;20850297;28;19956;-75
2024/01/22 01:18:25;;;;;;;;;;;-2.20;99.90;;;;;;20843812;28;19917;-74
2024/01/22 01:28:26;;;;;;;;;;;-2.10;99.90;;;;;;20865233;28;19944;-73
2024/01/22 01:38:26;;;;;;;;;;;-2.10;99.90;;;;;;20879740;28;19920;-75
2024/01/22 01:48:27;;;;;;;;;;;-2.00;99.90;;;;;;20886285;28;20334;-74
2024/01/22 01:58:30;;;;;;;;;;;-2.10;99.90;;;;;;20882755;28;20214;-75
2024/01/22 02:08:30;;;;;;;;;;;-2.10;99.90;;;;;;20875340;28;19960;-77
2024/01/22 02:18:31;;;;;;;;;;;-2.10;99.90;;;;;;20874771;28;19913;-76
2024/01/22 02:28:32;;;;;;;;;;;-1.80;99.90;;;;;;20861619;28;20020;-77
2024/01/22 02:38:33;;;;;;;;;;;-1.80;99.90;;;;;;20874768;28;19917;-77
2024/01/22 02:48:33;;;;;;;;;;;-1.90;99.90;;;;;;20855749;28;19923;-75
2024/01/22 02:58:34;;;;;;;;;;;-1.90;99.90;;;;;;20853208;28;19964;-78
2024/01/22 03:08:35;;;;;;;;;;;-2.00;99.90;;;;;;20870165;28;19960;-76
2024/01/22 03:18:36;;;;;;;;;;;-1.90;99.90;;;;;;20861679;28;19913;-75
2024/01/22 03:28:36;;;;;;;;;;;-2.00;99.90;;;;;;20879252;28;19924;-77
2024/01/22 03:38:38;;;;;;;;;;;-2.10;99.90;;;;;;20853550;28;19917;-75
2024/01/22 03:48:39;;;;;;;;;;;-2.00;99.90;;;;;;20859064;28;19924;-77
2024/01/22 03:58:39;;;;;;;;;;;-2.10;99.90;;;;;;20862116;28;20335;-77
2024/01/22 04:08:40;;;;;;;;;;;-2.30;99.90;;;;;;20854924;28;20284;-77
2024/01/22 04:18:41;;;;;;;;;;;-2.30;99.90;;;;;;20850507;28;19913;-77
2024/01/22 04:28:42;;;;;;;;;;;-2.50;99.90;;;;;;20845542;28;20012;-77
2024/01/22 04:38:42;;;;;;;;;;;-2.40;99.90;;;;;;20875732;28;19917;-77
2024/01/22 04:48:43;;;;;;;;;;;-2.50;99.90;;;;;;20863564;28;20357;-76
2024/01/22 04:58:44;;;;;;;;;;;-2.40;99.90;;;;;;20850206;28;19914;-77
2024/01/22 05:08:44;;;;;;;;;;;-2.30;99.90;;;;;;20868343;28;19921;-76
2024/01/22 05:18:46;;;;;;;;;;;-2.20;99.90;;;;;;20858908;28;19913;-77
2024/01/22 05:28:46;;;;;;;;;;;-2.00;99.90;;;;;;20842096;28;19944;-77
2024/01/22 05:38:47;;;;;;;;;;;-2.10;99.90;;;;;;20898951;28;20379;-75
2024/01/22 05:48:48;;;;;;;;;;;-1.90;99.90;;;;;;20878279;28;20366;-77
2024/01/22 05:58:49;;;;;;;;;;;-1.70;99.90;;;;;;20862502;28;19952;-76
2024/01/22 06:08:49;;;;;;;;;;;-1.20;99.90;;;;;;20902169;28;19921;-76
2024/01/22 06:18:50;;;;;;;;;;;-1.40;99.90;;;;;;20911734;28;20461;-76
2024/01/22 06:28:52;;;;;;;;;;;-1.30;99.90;;;;;;20916208;28;19917;-76
2024/01/22 06:38:53;;;;;;;;;;;-1.30;99.90;;;;;;20922311;28;20344;-75
2024/01/22 06:48:53;;;;;;;;;;;-1.40;99.90;;;;;;20903856;28;19970;-77
2024/01/22 06:58:55;;;;;;;;;;;-1.40;99.90;;;;;;20876393;28;20423;-77
2024/01/22 07:08:56;;;;;;;;;;;-1.50;99.90;;;;;;20898754;28;19921;-77
2024/01/22 07:18:57;;;;;;;;;;;-1.60;99.90;;;;;;20856540;28;19912;-77
2024/01/22 07:28:58;;;;;;;;;;;-1.60;99.90;;;;;;20842901;28;19928;-77
2024/01/22 07:38:59;;;;;;;;;;;-1.40;99.90;;;;;;20852345;28;20125;-75
2024/01/22 07:48:59;;;;;;;;;;;-1.30;99.90;;;;;;20868278;28;19921;-77
2024/01/22 07:59:00;;;;;;;;;;;-1.20;99.90;;;;;;20840021;28;19919;-77
2024/01/22 08:09:01;;;;;;;;;;;-0.90;99.90;;;;;;20871481;28;19917;-76
2024/01/22 08:19:03;;;;;;;;;;;-0.90;99.90;;;;;;20861761;28;19920;-76
2024/01/22 08:29:04;;;;;;;;;;;-0.70;99.90;;;;;;20852036;28;19923;-76
2024/01/22 08:39:04;;;;;;;;;;;-0.70;99.90;;;;;;20847120;28;19940;-76
2024/01/22 08:49:05;;;;;;;;;;;-0.40;99.90;;;;;;20832610;28;19917;-76
2024/01/22 08:59:06;;;;;;;;;;;-0.10;99.90;;;;;;20848569;28;19913;-75
2024/01/22 09:09:09;;;;;;;;;;;0.30;99.90;;;;;;20841982;28;19921;-76
2024/01/22 09:19:10;;;;;;;;;;;0.90;99.90;;;;;;20827844;28;20016;-76
2024/01/22 09:29:10;;;;;;;;;;;1.30;99.90;;;;;;20836415;28;19964;-75
2024/01/22 09:39:11;;;;;;;;;;;1.20;99.90;;;;;;20855338;28;20375;-76
2024/01/22 09:49:12;;;;;;;;;;;1.50;99.90;;;;;;20863054;28;19917;-76
2024/01/22 09:59:17;;;;;;;;;;;1.60;99.90;;;;;;20851687;28;20007;-75
2024/01/22 10:09:17;;;;;;;;;;;1.90;99.90;;;;;;20859972;28;20080;-76
2024/01/22 10:19:24;;;;;;;;;;;2.20;99.90;;;;;;20846111;28;20488;-76
2024/01/22 10:29:28;;;;;;;;;;;2.20;99.90;;;;;;20850178;28;19917;-76
2024/01/22 10:39:29;;;;;;;;;;;2.40;99.90;;;;;;20858869;28;19942;-76
2024/01/22 10:49:31;;;;;;;;;;;2.70;99.90;;;;;;20909464;28;20340;-75
2024/01/22 10:59:33;;;;;;;;;;;2.80;99.90;;;;;;20915914;28;19917;-77
2024/01/22 11:09:35;;;;;;;;;;;2.90;99.90;;;;;;20916064;28;19917;-77
2024/01/22 11:19:36;;;;;;;;;;;2.90;99.90;;;;;;20906296;28;19919;-77
2024/01/22 11:29:37;;;;;;;;;;;2.80;99.90;;;;;;20908989;28;20437;-77
2024/01/22 11:39:39;;;;;;;;;;;3.10;99.90;;;;;;20901973;28;19948;-77
2024/01/22 11:49:40;;;;;;;;;;;3.40;99.90;;;;;;20935674;28;19971;-76
2024/01/22 11:59:41;;;;;;;;;;;3.70;99.90;;;;;;20910979;28;19913;-77
2024/01/22 12:09:41;;;;;;;;;;;3.70;99.90;;;;;;20936928;28;19917;-79
2024/01/22 12:19:45;;;;;;;;;;;3.70;99.90;;;;;;20908194;28;20299;-78
2024/01/22 12:29:46;;;;;;;;;;;3.20;99.90;;;;;;20920545;28;19917;-79
2024/01/22 12:39:48;;;;;;;;;;;3.00;99.90;;;;;;20903300;28;19967;-79
2024/01/22 12:49:49;;;;;;;;;;;3.00;99.90;;;;;;20878808;28;20375;-78
2024/01/22 12:59:49;;;;;;;;;;;2.90;99.90;;;;;;20873225;28;19913;-80
2024/01/22 13:09:50;;;;;;;;;;;2.50;99.90;;;;;;20843211;28;19924;-78
2024/01/22 13:19:51;;;;;;;;;;;2.60;99.90;;;;;;20872887;28;19919;-79
2024/01/22 13:29:51;;;;;;;;;;;2.70;99.90;;;;;;20877199;28;19917;-79
2024/01/22 13:39:52;;;;;;;;;;;2.80;99.90;;;;;;20874648;28;20421;-78
2024/01/22 13:49:52;;;;;;;;;;;2.50;99.90;;;;;;20861294;28;19918;-76
2024/01/22 13:59:53;;;;;;;;;;;2.70;99.90;;;;;;20864205;28;19949;-78
2024/01/22 14:09:54;;;;;;;;;;;2.70;99.90;;;;;;20861090;28;20028;-78
2024/01/22 14:19:55;;;;;;;;;;;2.70;99.90;;;;;;20856402;28;19913;-78
2024/01/22 14:29:56;;;;;;;;;;;2.40;99.90;;;;;;20868663;28;19924;-78
2024/01/22 14:39:57;;;;;;;;;;;2.50;99.90;;;;;;20879297;28;20296;-78
2024/01/22 14:49:57;;;;;;;;;;;2.60;99.90;;;;;;20877387;28;19917;-79
2024/01/22 14:59:58;;;;;;;;;;;2.60;99.90;;;;;;20861619;28;19924;-77
2024/01/22 15:10:00;;;;;;;;;;;2.60;99.90;;;;;;20867110;28;19940;-75
2024/01/22 15:20:00;;;;;;;;;;;2.60;99.90;;;;;;20843366;28;19924;-75
2024/01/22 15:30:01;;;;;;;;;;;2.90;99.90;;;;;;20848958;28;20383;-77
2024/01/22 15:40:03;;;;;;;;;;;2.90;99.90;;;;;;20838242;28;19999;-77
2024/01/22 15:50:05;;;;;;;;;;;2.70;99.90;;;;;;20853423;28;19917;-76
2024/01/22 16:00:05;;;;;;;;;;;2.60;99.90;;;;;;20875668;28;19913;-78
2024/01/22 16:10:12;;;;;;;;;;;3.00;99.90;;;;;;20874062;28;19917;-76
2024/01/22 16:20:13;;;;;;;;;;;2.70;99.90;;;;;;20841744;28;19913;-76
2024/01/22 16:30:14;;;;;;;;;;;2.90;99.90;;;;;;20893239;28;20344;-79
2024/01/22 16:40:15;;;;;;;;;;;2.90;99.90;;;;;;20892377;28;19917;-79
2024/01/22 16:50:16;;;;;;;;;;;2.80;99.90;;;;;;20897166;28;19963;-75
2024/01/22 17:00:21;;;;;;;;;;;3.10;99.90;;;;;;20852251;28;20319;-75
2024/01/22 17:10:22;;;;;;;;;;;3.50;99.90;;;;;;20861770;28;19925;-75
2024/01/22 17:20:23;;;;;;;;;;;3.80;99.90;;;;;;20854483;28;19921;-78
2024/01/22 17:30:23;;;;;;;;;;;4.20;99.90;;;;;;20873309;28;19963;-75
2024/01/22 17:40:24;;;;;;;;;;;5.00;99.90;;;;;;20873140;28;19913;-75
2024/01/22 17:50:25;;;;;;;;;;;5.60;99.90;;;;;;20916726;28;20404;-75
2024/01/22 18:00:27;;;;;;;;;;;6.30;99.90;;;;;;20913591;28;19913;-74
2024/01/22 18:10:28;;;;;;;;;;;6.70;99.90;;;;;;20921167;28;19917;-75
2024/01/22 18:20:28;;;;;;;;;;;6.90;99.90;;;;;;20882131;28;19924;-76
2024/01/22 18:30:29;;;;;;;;;;;6.30;99.90;;;;;;20894031;28;19944;-77
2024/01/22 18:40:30;;;;;;;;;;;6.40;99.90;;;;;;20865433;28;20379;-74
2024/01/22 18:50:35;;;;;;;;;;;6.30;99.90;;;;;;20868653;28;20039;-73
2024/01/22 19:00:35;;;;;;;;;;;6.50;99.90;;;;;;20880174;28;20360;-75
2024/01/22 19:10:36;;;;;;;;;;;6.50;99.90;;;;;;20883179;28;19940;-74
2024/01/22 19:20:37;;;;;;;;;;;6.30;99.90;;;;;;20889031;28;19917;-75
2024/01/22 19:30:38;;;;;;;;;;;6.40;99.90;;;;;;20905422;28;19917;-74
2024/01/22 19:40:38;;;;;;;;;;;6.40;99.90;;;;;;20921012;28;19921;-74
2024/01/22 19:50:39;;;;;;;;;;;6.70;99.90;;;;;;20887372;28;19945;-74
2024/01/22 20:00:40;;;;;;;;;;;6.90;99.90;;;;;;20876612;28;19916;-75
2024/01/22 20:10:41;;;;;;;;;;;7.10;99.90;;;;;;20892765;28;19917;-74
2024/01/22 20:20:42;;;;;;;;;;;7.00;99.90;;;;;;20886247;28;20008;-75
2024/01/22 20:41:01;;;;;;;;;;;7.00;99.90;;;;;;20989177;23;20017;-77
2024/01/22 20:51:01;;;;;;;;;;;7.20;99.90;;;;;;20734040;28;19924;-78
2024/01/22 21:01:06;;;;;;;;;;;7.30;99.90;;;;;;20746157;28;19976;-78
2024/01/22 21:11:07;;;;;;;;;;;7.30;99.90;;;;;;20722971;28;20265;-79
2024/01/22 21:21:08;;;;;;;;;;;7.50;99.90;;;;;;20734944;28;19913;-79
2024/01/22 21:31:08;;;;;;;;;;;7.50;99.90;;;;;;20734874;28;20351;-78
2024/01/22 21:41:09;;;;;;;;;;;7.50;99.90;;;;;;20731267;28;19918;-80
2024/01/22 21:51:11;;;;;;;;;;;7.40;99.90;;;;;;20737634;28;19917;-80
2024/01/22 22:01:11;;;;;;;;;;;7.20;99.90;;;;;;20748987;28;19914;-80
2024/01/22 22:11:12;;;;;;;;;;;7.00;99.90;;;;;;20750595;28;19936;-79
2024/01/22 22:21:12;;;;;;;;;;;6.70;99.90;;;;;;20755673;28;19985;-78
2024/01/22 22:31:13;;;;;;;;;;;6.70;99.90;;;;;;20752064;28;19940;-81
2024/01/22 22:41:15;;;;;;;;;;;6.70;99.90;;;;;;20765368;28;19925;-80
2024/01/22 22:51:16;;;;;;;;;;;6.80;99.90;;;;;;20736274;28;19942;-79
2024/01/22 23:01:16;;;;;;;;;;;6.80;99.90;;;;;;20708310;28;20404;-78
2024/01/22 23:11:17;;;;;;;;;;;6.90;99.90;;;;;;20738662;28;19917;-80
2024/01/22 23:21:18;;;;;;;;;;;6.80;99.90;;;;;;20722622;28;19957;-80
2024/01/22 23:31:18;;;;;;;;;;;6.90;99.90;;;;;;20731931;28;19921;-78
2024/01/22 23:41:20;;;;;;;;;;;6.90;99.90;;;;;;20743101;28;19918;-79
2024/01/22 23:51:20;;;;;;;;;;;6.80;99.90;;;;;;20739601;28;20395;-77
